createdAt,value
2023-01-02T00:01:23.110Z,4.57
2023-01-02T00:03:50.321Z,4.70
2023-01-02T00:06:18.797Z,5.07
2023-01-02T00:08:45.979Z,5.60
2023-01-02T00:11:13.239Z,4.97
2023-01-02T00:13:40.444Z,4.68
2023-01-02T00:16:07.987Z,4.72
2023-01-02T00:18:35.331Z,4.65
2023-01-02T00:21:07.326Z,5.18
2023-01-02T00:23:35.413Z,4.72
2023-01-02T00:26:02.782Z,5.05
2023-01-02T00:28:30.877Z,4.45
2023-01-02T00:30:58.146Z,4.72
2023-01-02T00:33:25.211Z,4.60
2023-01-02T00:35:52.322Z,4.50
2023-01-02T00:38:19.595Z,4.78
2023-01-02T00:40:46.722Z,4.30
2023-01-02T00:43:13.851Z,3.90
2023-01-02T00:45:40.921Z,4.38
2023-01-02T00:48:08.055Z,4.03
2023-01-02T00:50:35.180Z,4.95
2023-01-02T00:53:02.389Z,4.73
2023-01-02T00:55:30.731Z,4.05
2023-01-02T00:57:57.947Z,4.57
2023-01-02T01:00:25.177Z,4.95
2023-01-02T01:02:59.659Z,4.18
2023-01-02T01:05:28.603Z,4.38
2023-01-02T01:07:58.111Z,4.00
2023-01-02T01:10:27.172Z,4.45
2023-01-02T01:12:54.345Z,4.28
2023-01-02T01:15:21.614Z,4.57
2023-01-02T01:17:48.884Z,4.63
2023-01-02T01:20:16.764Z,4.47
2023-01-02T01:22:43.809Z,4.18
2023-01-02T01:25:11.279Z,4.70
2023-01-02T01:27:38.417Z,4.53
2023-01-02T01:30:06.855Z,4.47
2023-01-02T01:32:35.027Z,4.63
2023-01-02T01:35:02.422Z,4.18
2023-01-02T01:37:29.576Z,4.22
2023-01-02T01:39:57.165Z,4.47
2023-01-02T01:42:24.472Z,3.85
2023-01-02T01:44:55.019Z,3.92
2023-01-02T01:47:35.995Z,4.30
2023-01-02T01:50:13.249Z,3.88
2023-01-02T01:52:52.178Z,4.20
2023-01-02T01:55:29.006Z,3.83
2023-01-02T01:58:08.066Z,3.80
2023-01-02T02:00:36.358Z,3.72
2023-01-02T02:03:16.397Z,4.32
2023-01-02T02:05:45.228Z,4.10
2023-01-02T02:08:24.002Z,3.92
2023-01-02T02:10:53.778Z,3.92
2023-01-02T02:13:21.681Z,4.35
2023-01-02T02:16:06.767Z,3.97
2023-01-02T02:18:54.818Z,3.58
2023-01-02T02:21:40.368Z,4.65
2023-01-02T02:24:55.191Z,4.50
2023-01-02T02:27:52.339Z,3.92
2023-01-02T02:30:22.785Z,4.32
2023-01-02T02:33:30.082Z,4.20
2023-01-02T02:36:20.556Z,3.90
2023-01-02T02:39:20.646Z,4.70
2023-01-02T02:42:25.999Z,4.00
2023-01-02T02:45:22.485Z,4.68
2023-01-02T02:48:21.084Z,3.88
2023-01-02T02:51:11.147Z,4.50
2023-01-02T02:53:50.567Z,3.90
2023-01-02T02:56:20.822Z,3.92
2023-01-02T02:58:48.052Z,4.05
2023-01-02T03:01:18.928Z,3.55
2023-01-02T03:03:46.172Z,3.97
2023-01-02T03:06:32.312Z,3.60
2023-01-02T03:09:26.486Z,3.47
2023-01-02T03:12:17.592Z,3.78
2023-01-02T03:15:09.441Z,3.45
2023-01-02T03:17:55.624Z,4.32
2023-01-02T03:20:30.174Z,3.90
2023-01-02T03:23:04.840Z,4.30
2023-01-02T03:25:34.958Z,3.97
2023-01-02T03:28:07.887Z,4.20
2023-01-02T03:30:39.799Z,3.90
2023-01-02T03:33:25.161Z,4.10
2023-01-02T03:35:59.656Z,3.80
2023-01-02T03:38:44.027Z,3.88
2023-01-02T03:41:23.580Z,4.03
2023-01-02T03:43:57.264Z,4.30
2023-01-02T03:46:59.754Z,4.20
2023-01-02T03:49:40.409Z,5.22
2023-01-02T03:52:07.477Z,4.30
2023-01-02T03:54:35.074Z,3.58
2023-01-02T03:57:32.439Z,4.05
2023-01-02T04:00:07.139Z,4.28
2023-01-02T04:02:59.915Z,3.72
2023-01-02T04:05:55.181Z,3.80
2023-01-02T04:08:46.151Z,3.97
2023-01-02T04:11:19.380Z,3.90
2023-01-02T04:13:58.427Z,3.53
2023-01-02T04:16:34.618Z,3.67
2023-01-02T04:19:15.020Z,3.27
2023-01-02T04:21:43.817Z,3.80
2023-01-02T04:24:21.848Z,4.07
2023-01-02T04:27:02.275Z,4.18
2023-01-02T04:29:31.118Z,4.10
2023-01-02T04:32:27.274Z,3.78
2023-01-02T04:34:55.746Z,3.40
2023-01-02T04:37:33.649Z,3.28
2023-01-02T04:40:25.322Z,3.40
2023-01-02T04:42:53.238Z,3.58
2023-01-02T04:45:20.621Z,3.17
2023-01-02T04:47:49.020Z,3.28
2023-01-02T04:50:17.267Z,3.45
2023-01-02T04:52:44.444Z,3.45
2023-01-02T04:55:11.893Z,3.05
2023-01-02T04:57:39.134Z,3.45
2023-01-02T05:00:11.194Z,3.33
2023-01-02T05:02:39.889Z,3.40
2023-01-02T05:05:09.100Z,3.00
2023-01-02T05:07:38.047Z,3.17
2023-01-02T05:10:07.393Z,3.03
2023-01-02T05:12:36.342Z,3.28
2023-01-02T05:15:09.292Z,3.20
2023-01-02T05:17:41.767Z,2.90
2023-01-02T05:20:12.527Z,2.92
2023-01-02T05:23:00.006Z,3.53
2023-01-02T05:25:31.621Z,2.80
2023-01-02T05:27:58.890Z,3.33
2023-01-02T05:30:26.490Z,2.85
2023-01-02T05:32:53.763Z,2.95
2023-01-02T05:35:22.813Z,2.80
2023-01-02T05:37:54.024Z,2.90
2023-01-02T05:40:21.298Z,2.60
2023-01-02T05:42:48.523Z,3.03
2023-01-02T05:45:15.691Z,2.95
2023-01-02T05:47:42.951Z,2.88
2023-01-02T05:50:10.182Z,3.00
2023-01-02T05:52:41.767Z,3.33
2023-01-02T05:55:12.589Z,3.20
2023-01-02T05:57:40.059Z,2.75
2023-01-02T06:00:08.209Z,2.90
2023-01-02T06:02:35.484Z,2.50
2023-01-02T06:05:02.682Z,2.92
2023-01-02T06:07:29.789Z,2.70
2023-01-02T06:09:56.932Z,3.13
2023-01-02T06:12:24.012Z,2.80
2023-01-02T06:14:51.120Z,2.75
2023-01-02T06:17:18.992Z,2.80
2023-01-02T06:19:51.928Z,2.97
2023-01-02T06:22:20.984Z,2.65
2023-01-02T06:24:48.178Z,2.95
2023-01-02T06:27:15.424Z,2.70
2023-01-02T06:29:43.690Z,2.80
2023-01-02T06:32:10.979Z,3.30
2023-01-02T06:34:38.306Z,2.58
2023-01-02T06:37:09.628Z,2.42
2023-01-02T06:39:37.979Z,1.90
2023-01-02T06:42:05.182Z,1.75
2023-01-02T06:44:33.824Z,1.50
2023-01-02T06:47:00.881Z,1.52
2023-01-02T06:49:27.998Z,1.60
2023-01-02T06:51:55.196Z,1.30
2023-01-02T06:54:22.311Z,1.13
2023-01-02T06:56:49.522Z,0.87
2023-01-02T06:59:16.659Z,0.90
2023-01-02T07:01:43.856Z,0.73
2023-01-02T07:04:20.155Z,0.60
2023-01-02T07:06:47.265Z,0.60
2023-01-02T07:09:14.363Z,0.80
2023-01-02T07:11:41.401Z,0.60
2023-01-02T07:14:08.612Z,0.70
2023-01-02T07:16:35.740Z,0.90
2023-01-02T07:19:02.965Z,0.90
2023-01-02T07:21:30.425Z,1.00
2023-01-02T07:23:57.542Z,1.10
2023-01-02T07:26:24.781Z,1.47
2023-01-02T07:28:51.983Z,1.27
2023-01-02T07:31:21.877Z,1.90
2023-01-02T07:33:50.984Z,2.30
2023-01-02T07:36:19.862Z,2.80
2023-01-02T07:38:51.928Z,2.93
2023-01-02T07:41:22.639Z,3.43
2023-01-02T07:43:50.926Z,3.40
2023-01-02T07:46:20.522Z,3.50
2023-01-02T07:48:47.843Z,3.53
2023-01-02T07:51:18.470Z,3.37
2023-01-02T07:53:48.280Z,3.80
2023-01-02T07:56:16.871Z,3.60
2023-01-02T07:58:44.243Z,3.80
2023-01-02T08:01:13.387Z,3.83
2023-01-02T08:03:43.858Z,3.90
2023-01-02T08:06:17.079Z,4.83
2023-01-02T08:08:44.389Z,4.47
2023-01-02T08:11:15.241Z,5.83
2023-01-02T08:13:43.182Z,5.70
2023-01-02T08:16:20.352Z,5.70
2023-01-02T08:18:51.372Z,6.07
2023-01-02T08:21:19.133Z,6.10
2023-01-02T08:23:46.622Z,6.73
2023-01-02T08:26:14.127Z,6.50
2023-01-02T08:28:42.044Z,6.13
2023-01-02T08:31:17.824Z,6.60
2023-01-02T08:33:45.667Z,6.33
2023-01-02T08:36:14.997Z,7.60
2023-01-02T08:38:43.126Z,6.80
2023-01-02T08:41:10.668Z,6.87
2023-01-02T08:43:40.238Z,7.47
2023-01-02T08:46:10.092Z,6.90
2023-01-02T08:48:37.958Z,6.67
2023-01-02T08:51:06.068Z,6.07
2023-01-02T08:53:33.307Z,5.63
2023-01-02T08:56:25.597Z,5.10
2023-01-02T08:58:59.383Z,5.87
2023-01-02T09:01:28.991Z,5.70
2023-01-02T09:03:57.855Z,5.33
2023-01-02T09:06:28.436Z,6.27
2023-01-02T09:08:59.051Z,5.90
2023-01-02T09:11:29.000Z,5.20
2023-01-02T09:13:59.261Z,6.20
2023-01-02T09:16:27.411Z,5.73
2023-01-02T09:19:01.323Z,6.33
2023-01-02T09:21:29.221Z,5.80
2023-01-02T09:23:56.986Z,6.73
2023-01-02T09:26:24.667Z,5.97
2023-01-02T09:28:51.943Z,6.13
2023-01-02T09:31:20.284Z,5.70
2023-01-02T09:33:48.597Z,5.93
2023-01-02T09:36:19.112Z,4.77
2023-01-02T09:38:53.018Z,5.13
2023-01-02T09:41:28.712Z,5.17
2023-01-02T09:44:01.743Z,5.50
2023-01-02T09:46:40.037Z,4.77
2023-01-02T09:49:12.066Z,4.70
2023-01-02T09:51:39.485Z,4.80
2023-01-02T09:54:33.587Z,5.00
2023-01-02T09:57:25.411Z,5.70
2023-01-02T10:00:17.103Z,4.50
2023-01-02T10:03:47.977Z,4.90
2023-01-02T10:06:32.525Z,4.30
2023-01-02T10:09:45.343Z,4.75
2023-01-02T10:12:26.862Z,5.10
2023-01-02T10:15:06.768Z,5.00
2023-01-02T10:17:39.704Z,4.80
2023-01-02T10:20:38.281Z,4.43
2023-01-02T10:23:17.502Z,4.43
2023-01-02T10:25:55.693Z,4.47
2023-01-02T10:28:46.588Z,4.07
2023-01-02T10:31:41.115Z,4.50
2023-01-02T10:34:18.742Z,4.25
2023-01-02T10:36:48.197Z,4.33
2023-01-02T10:39:27.509Z,3.90
2023-01-02T10:41:59.722Z,4.37
2023-01-02T10:44:31.116Z,4.40
2023-01-02T10:47:09.701Z,4.63
2023-01-02T10:49:37.927Z,4.93
2023-01-02T10:52:13.175Z,5.63
2023-01-02T10:54:59.890Z,5.60
2023-01-02T10:57:40.858Z,6.07
2023-01-02T11:00:28.876Z,7.55
2023-01-02T11:03:15.744Z,7.47
2023-01-02T11:05:53.995Z,6.68
2023-01-02T11:08:34.977Z,8.23
2023-01-02T11:11:02.829Z,8.52
2023-01-02T11:13:54.092Z,8.90
2023-01-02T11:16:27.050Z,8.38
2023-01-02T11:18:58.428Z,8.43
2023-01-02T11:21:39.020Z,9.23
2023-01-02T11:24:19.693Z,9.55
2023-01-02T11:26:50.136Z,8.50
2023-01-02T11:29:36.024Z,8.40
2023-01-02T11:32:04.864Z,8.35
2023-01-02T11:34:40.051Z,9.18
2023-01-02T11:37:13.399Z,8.95
2023-01-02T11:39:41.694Z,7.65
2023-01-02T11:42:26.946Z,8.85
2023-01-02T11:45:17.313Z,8.07
2023-01-02T11:47:53.141Z,9.40
2023-01-02T11:50:27.837Z,9.23
2023-01-02T11:53:12.161Z,10.23
2023-01-02T11:55:58.563Z,10.15
2023-01-02T11:58:27.383Z,9.98
2023-01-02T12:01:51.629Z,9.38
2023-01-02T12:04:19.131Z,8.38
2023-01-02T12:07:23.744Z,9.00
2023-01-02T12:10:28.209Z,8.25
2023-01-02T12:13:16.527Z,7.95
2023-01-02T12:15:46.292Z,7.75
2023-01-02T12:18:36.328Z,7.80
2023-01-02T12:21:26.338Z,7.40
2023-01-02T12:24:40.742Z,7.53
2023-01-02T12:27:44.391Z,6.45
2023-01-02T12:30:21.056Z,6.40
2023-01-02T12:33:12.589Z,6.20
2023-01-02T12:36:04.358Z,5.70
2023-01-02T12:39:04.279Z,5.55
2023-01-02T12:42:19.721Z,5.13
2023-01-02T12:45:00.021Z,4.50
2023-01-02T12:48:09.722Z,5.32
2023-01-02T12:51:14.096Z,5.20
2023-01-02T12:54:19.901Z,4.37
2023-01-02T12:57:25.402Z,4.60
2023-01-02T13:00:16.343Z,4.38
2023-01-02T13:03:26.555Z,4.30
2023-01-02T13:06:03.077Z,4.03
2023-01-02T13:08:57.755Z,4.53
2023-01-02T13:11:39.612Z,3.97
2023-01-02T13:14:09.764Z,4.30
2023-01-02T13:16:39.796Z,3.65
2023-01-02T13:19:21.766Z,3.70
2023-01-02T13:21:59.520Z,3.83
2023-01-02T13:24:27.368Z,4.03
2023-01-02T13:26:57.957Z,4.60
2023-01-02T13:29:40.766Z,3.97
2023-01-02T13:32:12.298Z,4.00
2023-01-02T13:34:51.697Z,3.90
2023-01-02T13:37:26.608Z,4.37
2023-01-02T13:40:03.012Z,4.40
2023-01-02T13:42:53.834Z,3.85
2023-01-02T13:45:46.336Z,3.72
2023-01-02T13:48:43.908Z,4.13
2023-01-02T13:51:21.126Z,3.33
2023-01-02T13:53:51.571Z,4.13
2023-01-02T13:56:24.790Z,4.20
2023-01-02T13:59:41.587Z,3.88
2023-01-02T14:02:20.198Z,4.50
2023-01-02T14:04:47.854Z,4.13
2023-01-02T14:07:27.313Z,3.30
2023-01-02T14:10:09.818Z,3.73
2023-01-02T14:13:01.268Z,3.58
2023-01-02T14:15:29.816Z,3.83
2023-01-02T14:18:09.365Z,3.50
2023-01-02T14:20:43.128Z,3.20
2023-01-02T14:23:30.495Z,2.53
2023-01-02T14:25:57.646Z,2.90
2023-01-02T14:28:33.958Z,3.23
2023-01-02T14:31:15.296Z,2.80
2023-01-02T14:33:42.690Z,2.80
2023-01-02T14:36:12.232Z,2.93
2023-01-02T14:38:50.949Z,3.10
2023-01-02T14:42:10.698Z,2.60
2023-01-02T14:44:46.708Z,2.90
2023-01-02T14:47:19.834Z,2.60
2023-01-02T14:49:58.346Z,2.70
2023-01-02T14:52:38.454Z,2.63
2023-01-02T14:55:18.828Z,3.10
2023-01-02T14:57:50.814Z,2.47
2023-01-02T15:00:37.196Z,3.30
2023-01-02T15:03:40.455Z,2.27
2023-01-02T15:06:39.098Z,2.30
2023-01-02T15:09:25.573Z,2.30
2023-01-02T15:12:17.961Z,2.30
2023-01-02T15:14:45.794Z,2.50
2023-01-02T15:17:19.652Z,2.20
2023-01-02T15:19:48.108Z,2.60
2023-01-02T15:22:23.135Z,2.63
2023-01-02T15:24:53.749Z,2.67
2023-01-02T15:27:33.775Z,2.57
2023-01-02T15:30:19.691Z,3.10
2023-01-02T15:32:50.073Z,2.50
2023-01-02T15:35:31.468Z,2.40
2023-01-02T15:37:58.856Z,2.47
2023-01-02T15:40:35.718Z,2.20
2023-01-02T15:43:31.360Z,2.10
2023-01-02T15:45:59.085Z,2.00
2023-01-02T15:48:28.578Z,2.10
2023-01-02T15:50:58.754Z,2.10
2023-01-02T15:53:42.880Z,2.17
2023-01-02T15:56:33.115Z,2.00
2023-01-02T15:59:00.428Z,2.07
2023-01-02T16:01:28.177Z,2.50
2023-01-02T16:04:04.606Z,1.77
2023-01-02T16:06:39.492Z,2.00
2023-01-02T16:09:18.609Z,1.87
2023-01-02T16:11:53.581Z,2.07
2023-01-02T16:14:44.490Z,2.50
2023-01-02T16:17:29.025Z,2.07
2023-01-02T16:20:00.622Z,2.40
2023-01-02T16:22:52.473Z,2.00
2023-01-02T16:25:26.974Z,2.17
2023-01-02T16:28:34.190Z,2.03
2023-01-02T16:31:18.427Z,2.53
2023-01-02T16:33:46.886Z,2.87
2023-01-02T16:36:27.292Z,2.70
2023-01-02T16:39:00.643Z,2.63
2023-01-02T16:41:41.968Z,2.53
2023-01-02T16:44:20.101Z,2.97
2023-01-02T16:46:49.250Z,2.90
2023-01-02T16:49:23.525Z,2.80
2023-01-02T16:51:53.545Z,3.10
2023-01-02T16:54:21.549Z,2.90
2023-01-02T16:56:49.961Z,2.80
2023-01-02T16:59:20.242Z,2.80
2023-01-02T17:01:47.421Z,2.53
2023-01-02T17:04:15.287Z,2.03
2023-01-02T17:06:42.470Z,2.50
2023-01-02T17:09:09.906Z,2.17
2023-01-02T17:11:37.956Z,2.30
2023-01-02T17:14:04.980Z,1.80
2023-01-02T17:16:32.064Z,2.17
2023-01-02T17:18:59.275Z,2.20
2023-01-02T17:21:32.474Z,2.53
2023-01-02T17:24:00.771Z,2.53
2023-01-02T17:26:27.912Z,2.10
2023-01-02T17:28:55.045Z,1.87
2023-01-02T17:31:25.765Z,1.60
2023-01-02T17:33:53.177Z,1.30
2023-01-02T17:36:20.428Z,1.10
2023-01-02T17:38:47.958Z,1.30
2023-01-02T17:41:15.190Z,1.00
2023-01-02T17:44:01.880Z,0.93
2023-01-02T17:49:17.504Z,1.03
2023-01-02T17:51:44.709Z,1.00
2023-01-02T17:54:12.389Z,1.03
2023-01-02T17:56:39.579Z,1.10
2023-01-02T17:59:06.693Z,1.10
2023-01-02T18:01:33.963Z,1.10
2023-01-02T18:04:01.268Z,1.20
2023-01-02T18:06:28.509Z,1.30
2023-01-02T18:08:56.062Z,1.50
2023-01-02T18:11:23.695Z,1.30
2023-01-02T18:13:54.531Z,1.70
2023-01-02T18:16:33.267Z,1.57
2023-01-02T18:19:04.969Z,1.60
2023-01-02T18:21:34.430Z,1.33
2023-01-02T18:24:14.112Z,1.60
2023-01-02T18:26:41.492Z,1.70
2023-01-02T18:29:22.478Z,1.57
2023-01-02T18:31:51.823Z,2.00
2023-01-02T18:37:30.672Z,2.10
2023-01-02T18:40:00.646Z,2.50
2023-01-02T18:42:32.248Z,2.33
2023-01-02T18:45:00.837Z,2.40
2023-01-02T18:47:35.297Z,2.50
2023-01-02T18:50:19.859Z,2.10
2023-01-02T18:52:51.582Z,2.40
2023-01-02T18:55:29.328Z,3.00
2023-01-02T18:58:09.396Z,2.80
2023-01-02T19:00:40.031Z,3.33
2023-01-02T19:03:26.733Z,3.33
2023-01-02T19:05:54.393Z,3.50
2023-01-02T19:08:35.018Z,3.70
2023-01-02T19:11:30.902Z,3.67
2023-01-02T19:13:59.214Z,4.60
2023-01-02T19:16:26.529Z,4.27
2023-01-02T19:18:56.401Z,4.67
2023-01-02T19:21:35.772Z,4.47
2023-01-02T19:24:19.559Z,5.20
2023-01-02T19:26:55.559Z,5.53
2023-01-02T19:29:29.972Z,5.50
2023-01-02T19:32:24.306Z,6.40
2023-01-02T19:34:55.229Z,5.60
2023-01-02T19:37:39.131Z,6.23
2023-01-02T19:40:20.650Z,7.03
2023-01-02T19:42:52.496Z,7.13
2023-01-02T19:45:23.383Z,7.73
2023-01-02T19:47:51.678Z,8.03
2023-01-02T19:50:28.211Z,7.77
2023-01-02T19:52:55.315Z,9.17
2023-01-02T19:55:22.537Z,8.00
2023-01-02T19:57:49.631Z,8.87
2023-01-02T20:00:19.487Z,8.37
2023-01-02T20:02:49.641Z,7.77
2023-01-02T20:05:22.878Z,11.23
2023-01-02T20:07:52.996Z,10.33
2023-01-02T20:10:22.351Z,9.13
2023-01-02T20:12:49.784Z,9.40
2023-01-02T20:15:25.751Z,8.40
2023-01-02T20:17:53.811Z,9.30
2023-01-02T20:20:25.188Z,9.13
2023-01-02T20:22:52.511Z,9.17
2023-01-02T20:25:24.154Z,9.03
2023-01-02T20:27:56.356Z,8.93
2023-01-02T20:30:24.994Z,9.70
2023-01-02T20:32:54.528Z,9.13
2023-01-02T20:35:23.166Z,9.83
2023-01-02T20:37:50.299Z,11.80
2023-01-02T20:40:17.446Z,9.87
2023-01-02T20:42:44.542Z,10.73
2023-01-02T20:45:12.432Z,10.40
2023-01-02T20:47:39.469Z,9.77
2023-01-02T20:50:07.172Z,8.53
2023-01-02T20:52:34.209Z,9.57
2023-01-02T20:55:01.313Z,8.90
2023-01-02T20:57:29.846Z,9.10
2023-01-02T20:59:56.969Z,8.97
2023-01-02T21:02:24.538Z,8.60
2023-01-02T21:04:52.323Z,8.87
2023-01-02T21:07:19.696Z,9.03
2023-01-02T21:09:46.759Z,8.93
2023-01-02T21:12:32.687Z,9.83
2023-01-02T21:14:59.711Z,10.37
2023-01-02T21:17:26.722Z,10.10
2023-01-02T21:19:53.867Z,9.83
2023-01-02T21:22:20.936Z,10.10
2023-01-02T21:24:47.959Z,10.93
2023-01-02T21:27:15.130Z,11.07
2023-01-02T21:29:42.196Z,11.07
2023-01-02T21:32:09.210Z,10.50
2023-01-02T21:34:36.250Z,10.20
2023-01-02T21:37:03.382Z,9.77
2023-01-02T21:39:30.380Z,9.10
2023-01-02T21:42:15.860Z,8.67
2023-01-02T21:44:44.216Z,8.67
2023-01-02T21:47:11.281Z,8.37
2023-01-02T21:49:43.138Z,7.77
2023-01-02T21:52:10.654Z,6.93
2023-01-02T21:54:37.715Z,7.50
2023-01-02T21:57:05.091Z,6.33
2023-01-02T21:59:32.313Z,6.37
2023-01-02T22:02:00.125Z,6.00
2023-01-02T22:04:27.360Z,5.20
2023-01-02T22:09:41.610Z,5.50
2023-01-02T22:12:08.669Z,5.33
2023-01-02T22:14:38.395Z,4.90
2023-01-02T22:17:09.560Z,5.13
2023-01-02T22:19:37.820Z,4.17
2023-01-02T22:22:05.492Z,5.07
2023-01-02T22:24:34.771Z,3.97
2023-01-02T22:27:08.409Z,4.33
2023-01-02T22:30:09.681Z,4.53
2023-01-02T22:32:23.957Z,4.00
2023-01-02T22:34:51.705Z,5.07
2023-01-02T22:37:22.658Z,3.80
2023-01-02T22:39:50.518Z,3.77
2023-01-02T22:45:34.334Z,3.77
2023-01-02T22:48:05.744Z,4.00
2023-01-02T22:50:42.760Z,3.60
2023-01-02T22:53:35.867Z,4.03
2023-01-02T22:56:15.843Z,4.50
2023-01-02T22:58:43.460Z,3.40
2023-01-02T23:01:33.363Z,3.53
2023-01-02T23:04:01.069Z,3.63
2023-01-02T23:06:28.982Z,3.93
2023-01-02T23:08:56.463Z,4.30
2023-01-02T23:11:23.961Z,4.07
2023-01-02T23:13:56.311Z,4.10
2023-01-02T23:16:43.282Z,3.83
2023-01-02T23:19:16.414Z,5.10
2023-01-02T23:21:47.301Z,4.20
2023-01-02T23:24:19.623Z,3.93
2023-01-02T23:26:56.380Z,5.03
2023-01-02T23:29:26.160Z,4.00
2023-01-02T23:31:54.097Z,4.30
2023-01-02T23:34:25.618Z,4.50
2023-01-02T23:36:55.047Z,4.43
2023-01-02T23:39:25.513Z,5.10
2023-01-02T23:41:53.784Z,5.40
2023-01-02T23:44:22.527Z,5.43
2023-01-02T23:46:50.153Z,5.20
2023-01-02T23:49:17.613Z,5.00
2023-01-02T23:51:45.624Z,5.00
2023-01-02T23:54:15.970Z,5.40
2023-01-02T23:56:46.269Z,4.50
2023-01-02T23:59:18.316Z,5.07
